Time;durP1;ratioP1;P1;durP2;ratioP2;P2;SDS_P1;SDS_P2;PMS_P1;PMS_P2;Temp;Humidity;BMP_temperature;BMP_pressure;BME280_temperature;BME280_humidity;BME280_pressure;Samples;Min_cycle;Max_cycle;Signal;HPM_P1;HPM_P2
2023/08/09 00:00:16;;;;;;;;;;;;;;;20.37;87.75;99646.81;5082114;28;19951;-71
2023/08/09 00:02:41;;;;;;;;;;;;;;;20.46;86.60;99648.25;5083464;28;20419;-71
2023/08/09 00:05:06;;;;;;;;;;;;;;;20.41;88.10;99642.69;5068951;28;19944;-71
2023/08/09 00:07:32;;;;;;;;;;;;;;;20.57;86.81;99634.25;5081613;28;19947;-71
2023/08/09 00:09:57;;;;;;;;;;;;;;;20.65;86.64;99634.06;5085098;28;19976;-70
2023/08/09 00:12:22;;;;;;;;;;;;;;;20.65;86.68;99634.06;5080054;28;19983;-70
2023/08/09 00:14:48;;;;;;;;;;;;;;;20.65;86.88;99639.44;5082525;28;19939;-71
2023/08/09 00:17:13;;;;;;;;;;;;;;;20.71;86.15;99630.56;5080626;28;19992;-71
2023/08/09 00:19:38;;;;;;;;;;;;;;;20.76;85.93;99625.41;5082769;28;19943;-71
2023/08/09 00:22:04;;;;;;;;;;;;;;;20.78;87.10;99627.88;5082947;28;19961;-69
2023/08/09 00:24:29;;;;;;;;;;;;;;;20.84;86.11;99627.88;5084097;28;19943;-71
2023/08/09 00:26:54;;;;;;;;;;;;;;;20.83;86.98;99615.50;5081182;28;20051;-71
2023/08/09 00:29:21;;;;;;;;;;;;;;;20.82;87.71;99613.84;5084126;28;19950;-69
2023/08/09 00:31:46;;;;;;;;;;;;;;;20.90;86.85;99617.34;5082284;28;19933;-71
2023/08/09 00:34:11;;;;;;;;;;;;;;;20.91;86.46;99619.00;5060602;28;19945;-71
2023/08/09 00:36:37;;;;;;;;;;;;;;;20.90;86.37;99615.50;5084826;28;19934;-71
2023/08/09 00:39:05;;;;;;;;;;;;;;;20.92;86.37;99612.59;5082114;28;19944;-70
2023/08/09 00:41:31;;;;;;;;;;;;;;;20.91;86.80;99608.28;5082421;28;19959;-71
2023/08/09 00:43:56;;;;;;;;;;;;;;;20.83;87.22;99615.50;5084217;28;19944;-71
2023/08/09 00:46:22;;;;;;;;;;;;;;;20.79;87.69;99624.97;5080310;28;19947;-71
2023/08/09 00:48:47;;;;;;;;;;;;;;;20.75;88.39;99623.75;5082735;28;19948;-71
2023/08/09 00:51:13;;;;;;;;;;;;;;;20.67;89.12;99625.81;5080349;28;19947;-71
2023/08/09 00:53:38;;;;;;;;;;;;;;;20.60;89.45;99615.09;5098030;28;20443;-71
2023/08/09 00:56:03;;;;;;;;;;;;;;;20.60;89.74;99623.13;5079210;28;19944;-70
2023/08/09 00:58:29;;;;;;;;;;;;;;;20.53;90.65;99622.28;5077305;28;19966;-70
2023/08/09 01:00:54;;;;;;;;;;;;;;;20.35;92.35;99624.75;5079394;28;19952;-71
2023/08/09 01:03:21;;;;;;;;;;;;;;;20.17;93.54;99627.16;5078466;28;20460;-71
2023/08/09 01:05:49;;;;;;;;;;;;;;;20.11;93.92;99636.00;5078866;28;19935;-70
2023/08/09 01:08:19;;;;;;;;;;;;;;;20.07;94.05;99632.06;5082890;28;19947;-71
2023/08/09 01:10:55;;;;;;;;;;;;;;;19.85;96.37;99626.84;5084517;28;20391;-71
2023/08/09 01:13:21;;;;;;;;;;;;;;;19.80;96.91;99623.94;5081863;28;20399;-72
2023/08/09 01:15:47;;;;;;;;;;;;;;;19.93;95.60;99624.00;5081614;28;20002;-70
2023/08/09 01:18:13;;;;;;;;;;;;;;;19.94;95.93;99622.16;5064195;28;20361;-71
2023/08/09 01:20:40;;;;;;;;;;;;;;;19.98;95.50;99621.53;5080906;28;19997;-71
2023/08/09 01:23:11;;;;;;;;;;;;;;;20.03;95.79;99626.28;5064595;28;19968;-71
2023/08/09 01:25:37;;;;;;;;;;;;;;;20.00;95.62;99630.22;5082630;28;20022;-71
2023/08/09 01:28:03;;;;;;;;;;;;;;;19.77;97.40;99635.06;5081626;28;20461;-72
2023/08/09 01:30:29;;;;;;;;;;;;;;;19.73;97.32;99630.31;5086077;28;20295;-70
2023/08/09 01:32:54;;;;;;;;;;;;;;;19.67;97.93;99637.31;5080497;28;20054;-72
2023/08/09 01:35:20;;;;;;;;;;;;;;;19.38;100.00;99648.25;5079372;28;19938;-72
2023/08/09 01:37:54;;;;;;;;;;;;;;;19.26;100.00;99649.81;5116725;22;19972;-78
2023/08/09 01:40:20;;;;;;;;;;;;;;;19.30;100.00;99645.72;5078999;28;20427;-77
2023/08/09 01:42:46;;;;;;;;;;;;;;;19.02;100.00;99646.56;5063502;28;19957;-77
2023/08/09 01:45:12;;;;;;;;;;;;;;;18.91;100.00;99649.75;5080916;28;19979;-79
2023/08/09 01:47:39;;;;;;;;;;;;;;;18.92;100.00;99650.56;5095199;28;19949;-77
2023/08/09 01:50:05;;;;;;;;;;;;;;;18.91;100.00;99647.06;5083090;28;19952;-77
2023/08/09 01:52:30;;;;;;;;;;;;;;;18.83;100.00;99652.56;5059871;28;19981;-76
2023/08/09 01:54:55;;;;;;;;;;;;;;;18.65;100.00;99644.19;5081081;28;19952;-76
2023/08/09 01:57:21;;;;;;;;;;;;;;;18.59;100.00;99650.31;5080384;28;20379;-77
2023/08/09 01:59:46;;;;;;;;;;;;;;;18.65;100.00;99639.69;5095816;28;20016;-77
2023/08/09 02:02:12;;;;;;;;;;;;;;;18.68;100.00;99643.78;5062431;28;20355;-78
2023/08/09 02:04:37;;;;;;;;;;;;;;;18.63;100.00;99646.22;5094824;28;19970;-78
2023/08/09 02:07:03;;;;;;;;;;;;;;;18.71;100.00;99648.78;5080871;28;19952;-80
2023/08/09 02:09:28;;;;;;;;;;;;;;;18.74;100.00;99653.72;5081694;28;20324;-77
2023/08/09 02:11:54;;;;;;;;;;;;;;;18.64;100.00;99647.88;5079378;28;19993;-78
2023/08/09 02:14:19;;;;;;;;;;;;;;;18.72;100.00;99634.41;5082526;28;19994;-78
2023/08/09 02:16:44;;;;;;;;;;;;;;;18.75;100.00;99612.59;5096697;28;19955;-78
2023/08/09 02:19:10;;;;;;;;;;;;;;;18.84;100.00;99608.78;5060911;28;19956;-77
2023/08/09 02:21:39;;;;;;;;;;;;;;;18.94;100.00;99595.88;5096760;28;19968;-77
2023/08/09 02:24:05;;;;;;;;;;;;;;;19.00;100.00;99594.28;5077812;28;20019;-78
2023/08/09 02:26:31;;;;;;;;;;;;;;;19.11;100.00;99601.75;5080474;28;20771;-78
2023/08/09 02:28:57;;;;;;;;;;;;;;;19.12;100.00;99619.47;5080970;28;20341;-78
2023/08/09 02:31:22;;;;;;;;;;;;;;;18.90;100.00;99626.72;5074821;28;20000;-78
2023/08/09 02:33:47;;;;;;;;;;;;;;;18.64;100.00;99629.16;5080086;28;20002;-78
2023/08/09 02:36:12;;;;;;;;;;;;;;;18.69;100.00;99624.06;5081751;28;20094;-78
2023/08/09 02:38:38;;;;;;;;;;;;;;;18.73;100.00;99620.00;5078300;28;19993;-78
2023/08/09 02:41:04;;;;;;;;;;;;;;;18.76;100.00;99630.31;5081226;28;19962;-78
2023/08/09 02:43:30;;;;;;;;;;;;;;;18.73;100.00;99628.03;5063746;28;20000;-78
2023/08/09 02:45:56;;;;;;;;;;;;;;;18.73;100.00;99641.41;5079062;28;20036;-77
2023/08/09 02:48:22;;;;;;;;;;;;;;;18.76;100.00;99641.00;5082721;28;19957;-78
2023/08/09 02:50:47;;;;;;;;;;;;;;;18.66;100.00;99637.84;5075760;28;19959;-78
2023/08/09 02:53:14;;;;;;;;;;;;;;;18.70;100.00;99647.13;5078174;28;19949;-78
2023/08/09 02:55:40;;;;;;;;;;;;;;;18.62;100.00;99652.56;5062828;28;19954;-76
2023/08/09 02:58:05;;;;;;;;;;;;;;;18.59;100.00;99655.66;5080583;28;19948;-77
2023/08/09 03:00:33;;;;;;;;;;;;;;;18.68;100.00;99659.84;5079962;28;19981;-77
2023/08/09 03:03:00;;;;;;;;;;;;;;;18.50;100.00;99651.41;5058928;28;20440;-78
2023/08/09 03:05:26;;;;;;;;;;;;;;;18.16;100.00;99657.44;5098933;28;19944;-77
2023/08/09 03:07:52;;;;;;;;;;;;;;;17.93;100.00;99660.25;5083263;28;19924;-80
2023/08/09 03:10:18;;;;;;;;;;;;;;;17.89;100.00;99650.97;5080263;28;20014;-78
2023/08/09 03:12:44;;;;;;;;;;;;;;;17.87;100.00;99645.81;5080151;28;19950;-78
2023/08/09 03:15:10;;;;;;;;;;;;;;;17.92;100.00;99647.91;5066820;28;19951;-78
2023/08/09 03:17:36;;;;;;;;;;;;;;;17.89;100.00;99654.47;5098413;28;19942;-78
2023/08/09 03:20:06;;;;;;;;;;;;;;;17.99;100.00;99648.84;5084373;28;19952;-77
2023/08/09 03:22:33;;;;;;;;;;;;;;;18.03;100.00;99647.44;5094115;28;19959;-78
2023/08/09 03:25:00;;;;;;;;;;;;;;;18.08;100.00;99647.72;5064823;28;19992;-78
2023/08/09 03:27:26;;;;;;;;;;;;;;;18.05;100.00;99652.59;5065315;28;20369;-77
2023/08/09 03:29:51;;;;;;;;;;;;;;;18.02;100.00;99652.97;5081508;28;21389;-78
2023/08/09 03:32:17;;;;;;;;;;;;;;;17.91;100.00;99651.59;5081513;28;20031;-78
2023/08/09 03:34:42;;;;;;;;;;;;;;;18.00;100.00;99647.81;5083419;28;19952;-78
2023/08/09 03:37:08;;;;;;;;;;;;;;;18.07;100.00;99640.72;5079726;28;19996;-78
2023/08/09 03:39:33;;;;;;;;;;;;;;;18.10;100.00;99640.31;5062834;28;19990;-78
2023/08/09 03:41:58;;;;;;;;;;;;;;;18.16;100.00;99650.25;5068029;28;19963;-78
2023/08/09 03:44:24;;;;;;;;;;;;;;;18.20;100.00;99656.88;5077359;28;19948;-78
2023/08/09 03:46:49;;;;;;;;;;;;;;;18.26;100.00;99653.44;5060347;28;20370;-78
2023/08/09 03:49:15;;;;;;;;;;;;;;;18.25;100.00;99656.31;5078636;28;20034;-78
2023/08/09 03:51:40;;;;;;;;;;;;;;;18.13;100.00;99649.81;5076901;28;19943;-77
2023/08/09 03:54:06;;;;;;;;;;;;;;;18.07;100.00;99656.75;5063115;28;19949;-76
2023/08/09 03:56:31;;;;;;;;;;;;;;;18.02;100.00;99652.97;5076816;28;20840;-77
2023/08/09 03:58:56;;;;;;;;;;;;;;;17.87;100.00;99661.00;5064243;28;20514;-78
2023/08/09 04:01:22;;;;;;;;;;;;;;;17.55;100.00;99660.34;5065792;28;19964;-78
2023/08/09 04:03:47;;;;;;;;;;;;;;;17.43;100.00;99669.88;5078323;28;20315;-77
2023/08/09 04:06:12;;;;;;;;;;;;;;;17.29;100.00;99676.00;5057596;28;19965;-76
2023/08/09 04:08:38;;;;;;;;;;;;;;;17.05;100.00;99689.59;5078681;28;19976;-77
2023/08/09 04:11:07;;;;;;;;;;;;;;;16.88;100.00;99690.72;5079427;28;19951;-77
2023/08/09 04:13:32;;;;;;;;;;;;;;;16.64;100.00;99694.44;5062065;28;20009;-77
2023/08/09 04:15:57;;;;;;;;;;;;;;;16.59;100.00;99692.31;5075758;28;20409;-76
2023/08/09 04:18:23;;;;;;;;;;;;;;;16.71;100.00;99688.22;5061368;28;19972;-78
2023/08/09 04:20:49;;;;;;;;;;;;;;;16.51;100.00;99692.31;5063487;28;19982;-77
2023/08/09 04:23:15;;;;;;;;;;;;;;;16.46;100.00;99700.00;5076715;28;20293;-78
2023/08/09 04:25:40;;;;;;;;;;;;;;;16.45;100.00;99705.50;5055619;28;20008;-77
2023/08/09 04:28:07;;;;;;;;;;;;;;;16.45;100.00;99711.66;5062362;28;19997;-78
2023/08/09 04:30:32;;;;;;;;;;;;;;;16.50;100.00;99709.31;5066767;28;20007;-78
2023/08/09 04:32:58;;;;;;;;;;;;;;;16.50;100.00;99719.97;5056652;28;19945;-78
2023/08/09 04:35:23;;;;;;;;;;;;;;;16.50;100.00;99713.78;5063712;28;19989;-78
2023/08/09 04:37:48;;;;;;;;;;;;;;;16.53;100.00;99708.13;5078117;28;20426;-75
2023/08/09 04:40:14;;;;;;;;;;;;;;;16.57;100.00;99709.44;5080369;28;19970;-77
2023/08/09 04:42:40;;;;;;;;;;;;;;;16.63;100.00;99704.25;5081300;28;20017;-76
2023/08/09 04:45:09;;;;;;;;;;;;;;;16.68;100.00;99706.38;5080512;28;20311;-77
2023/08/09 04:47:34;;;;;;;;;;;;;;;16.48;100.00;99711.34;5081320;28;19974;-76
2023/08/09 04:50:00;;;;;;;;;;;;;;;16.49;100.00;99710.34;5086317;28;20137;-78
2023/08/09 04:52:25;;;;;;;;;;;;;;;16.42;100.00;99716.53;5080147;28;20321;-78
2023/08/09 04:54:51;;;;;;;;;;;;;;;16.44;100.00;99718.00;5082118;28;20284;-78
2023/08/09 04:57:16;;;;;;;;;;;;;;;16.49;100.00;99718.31;5082412;28;20034;-78
2023/08/09 04:59:41;;;;;;;;;;;;;;;16.54;100.00;99721.28;5080555;28;19935;-77
2023/08/09 05:02:07;;;;;;;;;;;;;;;16.49;100.00;99718.31;5080520;28;19993;-78
2023/08/09 05:04:32;;;;;;;;;;;;;;;16.19;100.00;99716.50;5076944;28;19944;-74
2023/08/09 05:06:58;;;;;;;;;;;;;;;15.90;100.00;99727.78;5080616;28;19938;-76
2023/08/09 05:09:23;;;;;;;;;;;;;;;15.93;100.00;99712.28;5085509;28;19946;-77
2023/08/09 05:11:48;;;;;;;;;;;;;;;15.94;100.00;99711.28;5063044;28;20019;-76
2023/08/09 05:14:13;;;;;;;;;;;;;;;16.07;100.00;99708.06;5081284;28;19989;-77
2023/08/09 05:16:39;;;;;;;;;;;;;;;16.26;100.00;99712.13;5082758;28;19977;-77
2023/08/09 05:19:04;;;;;;;;;;;;;;;16.30;100.00;99719.59;5080727;28;19944;-77
2023/08/09 05:21:29;;;;;;;;;;;;;;;16.43;100.00;99713.69;5081690;28;19963;-77
2023/08/09 05:23:55;;;;;;;;;;;;;;;16.54;100.00;99721.28;5079720;28;19938;-77
2023/08/09 05:26:20;;;;;;;;;;;;;;;16.70;100.00;99723.84;5066318;28;20304;-77
2023/08/09 05:28:45;;;;;;;;;;;;;;;16.87;100.00;99727.22;5082693;28;19934;-77
2023/08/09 05:31:11;;;;;;;;;;;;;;;16.95;100.00;99734.34;5080069;28;20128;-78
2023/08/09 05:33:36;;;;;;;;;;;;;;;16.98;100.00;99728.63;5079254;28;19957;-78
2023/08/09 05:36:01;;;;;;;;;;;;;;;16.83;100.00;99743.75;5083071;28;19938;-78
2023/08/09 05:38:27;;;;;;;;;;;;;;;16.79;100.00;99752.09;5077095;28;20112;-77
2023/08/09 05:40:52;;;;;;;;;;;;;;;16.83;100.00;99746.41;5077850;28;19994;-78
2023/08/09 05:43:17;;;;;;;;;;;;;;;16.88;100.00;99749.38;5080244;28;19961;-77
2023/08/09 05:45:44;;;;;;;;;;;;;;;16.88;100.00;99733.38;5080598;28;20449;-77
2023/08/09 05:48:10;;;;;;;;;;;;;;;16.67;100.00;99737.50;5081632;28;20045;-78
2023/08/09 05:50:35;;;;;;;;;;;;;;;16.79;100.00;99735.25;5083490;28;20033;-77
2023/08/09 05:53:00;;;;;;;;;;;;;;;16.89;100.00;99733.22;5081313;28;19949;-77
2023/08/09 05:55:26;;;;;;;;;;;;;;;16.93;100.00;99742.50;5082946;28;20400;-78
2023/08/09 05:57:51;;;;;;;;;;;;;;;17.03;100.00;99734.25;5080547;28;19988;-78
2023/08/09 06:00:17;;;;;;;;;;;;;;;17.14;100.00;99742.63;5079039;28;20409;-78
2023/08/09 06:02:43;;;;;;;;;;;;;;;17.22;100.00;99741.75;5083934;28;19957;-78
2023/08/09 06:05:15;;;;;;;;;;;;;;;17.31;100.00;99739.84;5082354;28;19947;-77
2023/08/09 06:07:41;;;;;;;;;;;;;;;17.48;100.00;99742.16;5081888;28;19938;-78
2023/08/09 06:10:06;;;;;;;;;;;;;;;17.59;100.00;99733.72;5083149;28;19941;-78
2023/08/09 06:12:32;;;;;;;;;;;;;;;17.59;100.00;99728.38;5080525;28;20546;-76
2023/08/09 06:14:59;;;;;;;;;;;;;;;17.57;100.00;99738.38;5081714;28;20004;-77
2023/08/09 06:17:25;;;;;;;;;;;;;;;17.59;100.00;99733.72;5080503;28;20474;-78
2023/08/09 06:19:50;;;;;;;;;;;;;;;17.59;100.00;99739.06;5079333;28;19967;-78
2023/08/09 06:22:15;;;;;;;;;;;;;;;17.68;100.00;99746.97;5081101;28;19936;-77
2023/08/09 06:24:40;;;;;;;;;;;;;;;17.71;100.00;99747.47;5082424;28;19924;-77
2023/08/09 06:27:06;;;;;;;;;;;;;;;17.84;100.00;99752.16;5080501;28;20375;-79
2023/08/09 06:29:32;;;;;;;;;;;;;;;17.97;100.00;99757.66;5081587;28;19924;-77
2023/08/09 06:31:58;;;;;;;;;;;;;;;18.00;100.00;99765.31;5078590;28;19974;-77
2023/08/09 06:34:23;;;;;;;;;;;;;;;18.04;100.00;99755.06;5079298;28;19919;-77
2023/08/09 06:36:48;;;;;;;;;;;;;;;18.10;100.00;99757.00;5079466;28;19920;-77
2023/08/09 06:39:14;;;;;;;;;;;;;;;18.21;100.00;99754.69;5082298;28;19924;-77
2023/08/09 06:41:39;;;;;;;;;;;;;;;18.32;100.00;99754.19;5081077;28;19920;-77
2023/08/09 06:44:05;;;;;;;;;;;;;;;18.46;100.00;99759.69;5085889;28;19975;-76
2023/08/09 06:46:30;;;;;;;;;;;;;;;18.55;100.00;99762.13;5082720;28;19927;-77
2023/08/09 06:48:56;;;;;;;;;;;;;;;18.63;100.00;99761.16;5084979;28;20333;-78
2023/08/09 06:51:21;;;;;;;;;;;;;;;18.65;100.00;99757.28;5085486;28;19982;-78
2023/08/09 06:53:47;;;;;;;;;;;;;;;18.72;100.00;99762.69;5083522;28;19931;-77
2023/08/09 06:56:12;;;;;;;;;;;;;;;18.82;100.00;99763.22;5081463;28;19920;-77
2023/08/09 06:58:37;;;;;;;;;;;;;;;18.84;100.00;99761.19;5067764;28;20288;-77
2023/08/09 07:01:03;;;;;;;;;;;;;;;18.89;100.00;99758.75;5081042;28;19998;-77
2023/08/09 07:03:28;;;;;;;;;;;;;;;18.96;100.00;99770.34;5086079;28;19925;-77
2023/08/09 07:05:54;;;;;;;;;;;;;;;19.03;100.00;99768.53;5084143;28;19920;-77
2023/08/09 07:08:21;;;;;;;;;;;;;;;19.12;100.00;99770.06;5085057;28;19921;-78
2023/08/09 07:10:46;;;;;;;;;;;;;;;19.19;100.00;99765.63;5085762;28;19946;-78
2023/08/09 07:13:11;;;;;;;;;;;;;;;19.28;100.00;99762.78;5083722;28;19924;-78
2023/08/09 07:15:37;;;;;;;;;;;;;;;19.39;100.00;99780.97;5079202;28;19920;-77
2023/08/09 07:18:02;;;;;;;;;;;;;;;19.53;100.00;99777.44;5082454;28;19919;-76
2023/08/09 07:20:28;;;;;;;;;;;;;;;19.64;100.00;99779.56;5063511;28;20023;-77
2023/08/09 07:22:53;;;;;;;;;;;;;;;19.69;100.00;99779.81;5085294;28;19920;-76
2023/08/09 07:25:18;;;;;;;;;;;;;;;19.72;100.00;99767.88;5065019;28;20380;-77
2023/08/09 07:27:45;;;;;;;;;;;;;;;19.83;100.00;99761.97;5082252;28;19920;-78
2023/08/09 07:30:11;;;;;;;;;;;;;;;19.95;100.00;99763.91;5085624;28;20409;-77
2023/08/09 07:32:38;;;;;;;;;;;;;;;20.07;100.00;99768.69;5084753;28;20014;-77
2023/08/09 07:35:04;;;;;;;;;;;;;;;20.16;100.00;99764.81;5079413;28;20334;-77
2023/08/09 07:37:30;;;;;;;;;;;;;;;20.24;100.00;99770.00;5085374;28;20399;-76
2023/08/09 07:39:55;;;;;;;;;;;;;;;20.28;100.00;99764.03;5082173;28;20092;-77
2023/08/09 07:42:20;;;;;;;;;;;;;;;20.29;100.00;99751.47;5084477;28;19970;-77
2023/08/09 07:44:46;;;;;;;;;;;;;;;20.39;100.00;99757.31;5080732;28;19944;-76
2023/08/09 07:47:11;;;;;;;;;;;;;;;20.44;100.00;99760.22;5083024;28;20402;-78
2023/08/09 07:49:36;;;;;;;;;;;;;;;20.54;100.00;99763.34;5083270;28;19920;-77
2023/08/09 07:52:01;;;;;;;;;;;;;;;20.60;99.84;99754.50;5085181;28;19928;-76
2023/08/09 07:54:27;;;;;;;;;;;;;;;20.67;98.99;99760.72;5079206;28;20791;-75
2023/08/09 07:56:52;;;;;;;;;;;;;;;20.76;97.28;99770.22;5085064;28;19934;-78
2023/08/09 07:59:18;;;;;;;;;;;;;;;20.87;96.64;99765.28;5085570;28;20463;-77
2023/08/09 08:01:44;;;;;;;;;;;;;;;20.92;94.97;99763.63;5083258;28;19920;-78
2023/08/09 08:04:10;;;;;;;;;;;;;;;21.02;94.24;99757.88;5081962;28;19948;-77
2023/08/09 08:06:35;;;;;;;;;;;;;;;21.09;93.00;99758.69;5083998;28;20380;-77
2023/08/09 08:09:00;;;;;;;;;;;;;;;21.17;92.34;99761.22;5083887;28;19965;-77
2023/08/09 08:11:26;;;;;;;;;;;;;;;21.21;92.19;99759.75;5084313;28;19920;-78
2023/08/09 08:13:51;;;;;;;;;;;;;;;21.28;91.75;99760.59;5080723;28;19978;-78
2023/08/09 08:16:16;;;;;;;;;;;;;;;21.36;90.58;99757.69;5084322;28;19920;-76
2023/08/09 08:18:42;;;;;;;;;;;;;;;21.44;87.66;99757.47;5082660;28;19970;-76
2023/08/09 08:21:08;;;;;;;;;;;;;;;21.52;87.25;99749.22;5065605;28;20232;-77
2023/08/09 08:23:34;;;;;;;;;;;;;;;21.58;87.24;99751.06;5082655;28;20015;-77
2023/08/09 08:25:59;;;;;;;;;;;;;;;21.67;84.41;99753.53;5081744;28;20341;-77
2023/08/09 08:28:25;;;;;;;;;;;;;;;21.74;84.13;99746.28;5082885;28;20260;-77
2023/08/09 08:30:50;;;;;;;;;;;;;;;21.75;78.76;99753.31;5081333;28;19963;-78
2023/08/09 08:33:16;;;;;;;;;;;;;;;21.76;78.57;99749.59;5064395;28;19925;-78
2023/08/09 08:35:48;;;;;;;;;;;;;;;21.82;78.65;99743.38;5083969;28;19924;-77
2023/08/09 08:38:13;;;;;;;;;;;;;;;21.91;78.58;99742.91;5081061;28;19955;-77
2023/08/09 08:40:39;;;;;;;;;;;;;;;22.00;77.51;99741.69;5082851;28;19955;-77
2023/08/09 08:43:08;;;;;;;;;;;;;;;22.12;76.63;99741.88;5083543;28;20283;-76
2023/08/09 08:45:35;;;;;;;;;;;;;;;22.15;74.41;99737.94;5084124;28;19920;-77
2023/08/09 08:48:01;;;;;;;;;;;;;;;22.15;75.34;99749.47;5079672;28;19920;-76
2023/08/09 08:50:30;;;;;;;;;;;;;;;22.23;73.76;99741.19;5083016;28;20449;-76
2023/08/09 08:52:55;;;;;;;;;;;;;;;22.32;73.50;99737.25;5078067;28;20354;-77
2023/08/09 08:55:21;;;;;;;;;;;;;;;22.39;71.63;99738.00;5082475;28;19964;-77
2023/08/09 08:57:47;;;;;;;;;;;;;;;22.46;71.46;99741.50;5083692;28;19977;-77
2023/08/09 09:00:15;;;;;;;;;;;;;;;22.51;70.09;99737.31;5063172;28;19920;-77
2023/08/09 09:02:42;;;;;;;;;;;;;;;22.56;68.18;99737.53;5081883;28;19955;-77
2023/08/09 09:05:07;;;;;;;;;;;;;;;22.56;68.69;99724.06;5081758;28;20019;-77
2023/08/09 09:07:33;;;;;;;;;;;;;;;22.58;67.64;99727.34;5080570;28;20311;-77
2023/08/09 09:10:03;;;;;;;;;;;;;;;22.65;68.49;99730.84;5075923;28;19957;-77
2023/08/09 09:12:28;;;;;;;;;;;;;;;22.73;68.96;99727.94;5081203;28;19938;-77
2023/08/09 09:14:54;;;;;;;;;;;;;;;22.81;69.52;99716.88;5083211;28;19924;-77
2023/08/09 09:17:20;;;;;;;;;;;;;;;22.87;66.66;99716.00;5083609;28;19920;-77
2023/08/09 09:19:45;;;;;;;;;;;;;;;22.91;67.04;99711.88;5081863;28;20350;-77
2023/08/09 09:22:24;;;;;;;;;;;;;;;22.95;67.55;99718.44;5083185;28;20283;-77
2023/08/09 09:24:49;;;;;;;;;;;;;;;22.99;66.83;99708.06;5081178;28;19924;-77
2023/08/09 09:27:15;;;;;;;;;;;;;;;23.02;63.69;99700.38;5081190;28;19920;-76
2023/08/09 09:29:41;;;;;;;;;;;;;;;23.06;63.56;99709.66;5079457;28;19920;-76
2023/08/09 09:32:08;;;;;;;;;;;;;;;23.12;62.58;99708.78;5080474;28;20429;-77
2023/08/09 09:34:35;;;;;;;;;;;;;;;23.20;59.61;99697.75;5083432;28;20384;-77
2023/08/09 09:37:00;;;;;;;;;;;;;;;23.25;60.13;99703.28;5083425;28;20417;-79
2023/08/09 09:39:27;;;;;;;;;;;;;;;23.32;58.67;99700.53;5065257;28;19995;-78
2023/08/09 09:41:53;;;;;;;;;;;;;;;23.40;58.64;99696.72;5083376;28;19920;-78
2023/08/09 09:44:21;;;;;;;;;;;;;;;23.44;59.61;99685.31;5083213;28;19921;-77
2023/08/09 09:46:52;;;;;;;;;;;;;;;23.52;58.11;99692.28;5079280;28;19923;-78
2023/08/09 09:49:18;;;;;;;;;;;;;;;23.57;57.89;99687.03;5081625;28;19921;-78
2023/08/09 09:51:45;;;;;;;;;;;;;;;23.62;56.03;99685.31;5082807;28;19916;-78
2023/08/09 09:54:10;;;;;;;;;;;;;;;23.65;55.50;99681.38;5078506;28;20023;-78
2023/08/09 09:56:36;;;;;;;;;;;;;;;23.69;55.65;99679.88;5084906;28;20035;-77
2023/08/09 09:59:03;;;;;;;;;;;;;;;23.74;55.14;99681.91;5061592;28;19974;-77
2023/08/09 10:01:30;;;;;;;;;;;;;;;23.81;56.06;99682.63;5082208;28;19969;-77
2023/08/09 10:04:06;;;;;;;;;;;;;;;23.88;55.11;99686.06;5082920;28;19921;-77
2023/08/09 10:06:33;;;;;;;;;;;;;;;23.96;52.93;99675.00;5079435;28;20006;-77
2023/08/09 10:08:59;;;;;;;;;;;;;;;24.05;53.52;99677.16;5076738;28;19951;-77
2023/08/09 10:11:25;;;;;;;;;;;;;;;24.11;51.89;99678.09;5081166;28;20372;-77
2023/08/09 10:13:52;;;;;;;;;;;;;;;24.16;51.21;99677.41;5080175;28;19920;-78
2023/08/09 10:16:20;;;;;;;;;;;;;;;24.20;51.40;99673.28;5085238;28;20340;-78
2023/08/09 10:18:49;;;;;;;;;;;;;;;24.29;48.93;99672.72;5084802;28;19921;-77
2023/08/09 10:21:16;;;;;;;;;;;;;;;24.42;47.33;99679.78;5085787;28;20391;-77
2023/08/09 10:23:53;;;;;;;;;;;;;;;24.48;47.24;99671.63;5087173;28;19994;-77
2023/08/09 10:26:25;;;;;;;;;;;;;;;24.53;45.72;99668.22;5080576;28;19972;-77
2023/08/09 10:28:50;;;;;;;;;;;;;;;24.60;45.54;99668.94;5085781;28;19935;-78
2023/08/09 10:31:35;;;;;;;;;;;;;;;24.63;46.64;99663.06;5086153;28;19924;-78
2023/08/09 10:34:07;;;;;;;;;;;;;;;24.69;44.84;99647.84;5066339;28;20363;-76
2023/08/09 10:36:32;;;;;;;;;;;;;;;24.73;44.67;99652.56;5082069;28;19920;-77
2023/08/09 10:38:58;;;;;;;;;;;;;;;24.88;43.71;99654.78;5085833;28;19920;-76
2023/08/09 10:41:25;;;;;;;;;;;;;;;24.93;43.55;99646.03;5082899;28;20248;-77
2023/08/09 10:44:00;;;;;;;;;;;;;;;24.99;42.83;99645.91;5084933;28;20426;-78
2023/08/09 10:46:25;;;;;;;;;;;;;;;25.05;41.98;99647.69;5079478;28;19927;-76
2023/08/09 10:48:51;;;;;;;;;;;;;;;25.05;42.69;99647.69;5085095;28;20026;-77
2023/08/09 10:51:18;;;;;;;;;;;;;;;25.07;41.56;99647.44;5085347;28;20000;-78
2023/08/09 10:54:01;;;;;;;;;;;;;;;25.11;41.04;99648.63;5083565;28;19928;-78
2023/08/09 10:56:27;;;;;;;;;;;;;;;25.12;41.89;99639.47;5087604;28;19920;-78
2023/08/09 10:58:52;;;;;;;;;;;;;;;25.17;41.31;99642.28;5081618;28;19984;-77
2023/08/09 11:01:18;;;;;;;;;;;;;;;25.21;42.51;99644.25;5084140;28;20433;-78
2023/08/09 11:03:44;;;;;;;;;;;;;;;25.27;41.19;99632.53;5084199;28;19931;-78
2023/08/09 11:06:09;;;;;;;;;;;;;;;25.32;41.10;99629.13;5083001;28;19920;-78
2023/08/09 11:08:34;;;;;;;;;;;;;;;25.33;40.20;99624.56;5066187;28;20461;-78
2023/08/09 11:11:01;;;;;;;;;;;;;;;25.36;41.83;99627.59;5086594;28;19929;-78
2023/08/09 11:13:27;;;;;;;;;;;;;;;25.45;41.48;99636.13;5083824;28;19928;-78
2023/08/09 11:15:53;;;;;;;;;;;;;;;25.47;41.57;99632.16;5087049;28;19925;-77
2023/08/09 11:18:18;;;;;;;;;;;;;;;25.53;40.55;99624.97;5083480;28;20268;-78
2023/08/09 11:20:44;;;;;;;;;;;;;;;25.57;41.00;99632.38;5083247;28;19935;-78
2023/08/09 11:23:10;;;;;;;;;;;;;;;25.61;41.00;99628.19;5081239;28;19921;-78
2023/08/09 11:25:36;;;;;;;;;;;;;;;25.66;40.17;99625.56;5082117;28;19931;-78
2023/08/09 11:28:03;;;;;;;;;;;;;;;25.74;40.50;99631.66;5066080;28;19924;-78
2023/08/09 11:30:30;;;;;;;;;;;;;;;25.80;40.99;99619.91;5082206;28;20038;-79
2023/08/09 11:33:04;;;;;;;;;;;;;;;25.88;40.61;99616.81;5082683;28;19920;-78
2023/08/09 11:35:42;;;;;;;;;;;;;;;25.95;41.25;99610.19;5082517;28;19974;-79
2023/08/09 11:38:09;;;;;;;;;;;;;;;26.04;39.50;99605.22;5084374;28;19928;-78
2023/08/09 11:40:38;;;;;;;;;;;;;;;26.10;40.00;99601.53;5080386;28;20368;-78
2023/08/09 11:43:04;;;;;;;;;;;;;;;26.22;39.19;99598.78;5080460;28;19941;-78
2023/08/09 11:45:29;;;;;;;;;;;;;;;26.23;39.45;99598.56;5066252;28;19924;-76
2023/08/09 11:47:55;;;;;;;;;;;;;;;26.31;38.20;99594.66;5081477;28;20010;-77
2023/08/09 11:50:24;;;;;;;;;;;;;;;26.35;38.50;99579.56;5084348;28;19920;-77
2023/08/09 11:52:53;;;;;;;;;;;;;;;26.43;39.14;99585.41;5082281;28;19920;-77
2023/08/09 11:55:19;;;;;;;;;;;;;;;26.54;38.69;99583.69;5083142;28;19967;-77
2023/08/09 11:57:44;;;;;;;;;;;;;;;26.60;37.37;99573.75;5085441;28;19955;-78
2023/08/09 12:00:10;;;;;;;;;;;;;;;26.62;37.08;99579.75;5079831;28;20018;-78
2023/08/09 12:02:38;;;;;;;;;;;;;;;26.68;38.20;99578.78;5083934;28;20001;-77
2023/08/09 12:05:08;;;;;;;;;;;;;;;26.80;40.21;99571.38;5085042;28;19967;-77
2023/08/09 12:07:33;;;;;;;;;;;;;;;26.90;40.05;99571.56;5064995;28;20526;-78
2023/08/09 12:10:02;;;;;;;;;;;;;;;27.04;39.30;99572.81;5088492;28;19981;-77
2023/08/09 12:12:35;;;;;;;;;;;;;;;27.16;38.75;99562.69;5079084;28;19928;-78
2023/08/09 12:15:00;;;;;;;;;;;;;;;27.38;36.84;99567.34;5080710;28;19958;-77
2023/08/09 12:17:29;;;;;;;;;;;;;;;27.53;36.32;99564.84;5083992;28;19963;-77
2023/08/09 12:19:56;;;;;;;;;;;;;;;27.66;36.93;99562.56;5080746;28;20019;-77
2023/08/09 12:22:22;;;;;;;;;;;;;;;27.85;36.92;99557.63;5085276;28;20391;-78
2023/08/09 12:24:47;;;;;;;;;;;;;;;27.96;36.12;99544.97;5081934;28;20015;-78
2023/08/09 12:27:12;;;;;;;;;;;;;;;28.05;36.95;99551.56;5082081;28;19926;-77
2023/08/09 12:29:38;;;;;;;;;;;;;;;28.19;36.50;99549.31;5083649;28;19921;-76
2023/08/09 12:32:03;;;;;;;;;;;;;;;28.37;35.47;99546.19;5081462;28;19920;-77
2023/08/09 12:34:29;;;;;;;;;;;;;;;28.50;35.96;99557.47;5080509;28;20291;-77